createdAt,value
2023-03-14T00:02:17.496Z,8.24
2023-03-14T00:04:45.354Z,8.20
2023-03-14T00:07:13.413Z,8.18
2023-03-14T00:09:41.112Z,8.16
2023-03-14T00:12:10.071Z,8.16
2023-03-14T00:14:37.787Z,8.13
2023-03-14T00:17:05.450Z,8.11
2023-03-14T00:19:33.081Z,8.08
2023-03-14T00:22:00.806Z,8.06
2023-03-14T00:24:28.441Z,8.02
2023-03-14T00:26:56.080Z,7.97
2023-03-14T00:29:23.812Z,7.91
2023-03-14T00:31:51.489Z,7.85
2023-03-14T00:34:19.234Z,7.80
2023-03-14T00:36:47.035Z,7.75
2023-03-14T00:39:14.728Z,7.71
2023-03-14T00:41:42.408Z,7.68
2023-03-14T00:44:10.005Z,7.67
2023-03-14T00:46:39.618Z,7.65
2023-03-14T00:49:08.421Z,7.65
2023-03-14T00:51:36.106Z,7.68
2023-03-14T00:54:03.903Z,7.72
2023-03-14T00:56:31.672Z,7.76
2023-03-14T00:58:59.372Z,7.80
2023-03-14T01:01:27.061Z,7.85
2023-03-14T01:03:55.731Z,7.88
2023-03-14T01:06:25.378Z,7.91
2023-03-14T01:08:53.486Z,7.93
2023-03-14T01:11:23.919Z,7.94
2023-03-14T01:13:51.688Z,7.94
2023-03-14T01:16:20.064Z,7.94
2023-03-14T01:18:48.029Z,7.94
2023-03-14T01:21:23.898Z,7.93
2023-03-14T01:23:51.984Z,7.91
2023-03-14T01:26:20.972Z,7.89
2023-03-14T01:28:48.934Z,7.88
2023-03-14T01:31:16.760Z,7.88
2023-03-14T01:33:44.617Z,7.90
2023-03-14T01:36:12.591Z,7.94
2023-03-14T01:38:40.833Z,7.97
2023-03-14T01:41:09.320Z,8.02
2023-03-14T01:43:36.991Z,8.07
2023-03-14T01:46:07.628Z,8.12
2023-03-14T01:48:56.891Z,8.20
2023-03-14T01:51:51.294Z,8.28
2023-03-14T01:54:36.643Z,8.38
2023-03-14T01:57:16.824Z,8.49
2023-03-14T01:59:49.066Z,8.58
2023-03-14T02:02:17.095Z,8.67
2023-03-14T02:04:45.023Z,8.75
2023-03-14T02:07:31.470Z,8.81
2023-03-14T02:09:59.219Z,8.88
2023-03-14T02:12:27.001Z,8.96
2023-03-14T02:14:54.816Z,9.03
2023-03-14T02:17:22.494Z,9.09
2023-03-14T02:20:28.848Z,9.14
2023-03-14T02:22:56.550Z,9.20
2023-03-14T02:25:55.528Z,9.24
2023-03-14T02:28:23.378Z,9.30
2023-03-14T02:30:51.098Z,9.33
2023-03-14T02:33:20.248Z,9.36
2023-03-14T02:35:53.714Z,9.38
2023-03-14T02:38:41.006Z,9.40
2023-03-14T02:41:09.115Z,9.42
2023-03-14T02:43:36.779Z,9.42
2023-03-14T02:46:05.226Z,9.42
2023-03-14T02:48:40.201Z,9.41
2023-03-14T02:51:09.136Z,9.40
2023-03-14T02:53:37.107Z,9.38
2023-03-14T02:56:05.583Z,9.36
2023-03-14T02:58:33.332Z,9.36
2023-03-14T03:01:01.016Z,9.35
2023-03-14T03:03:28.835Z,9.34
2023-03-14T03:05:57.255Z,9.33
2023-03-14T03:08:26.848Z,9.32
2023-03-14T03:10:54.690Z,9.30
2023-03-14T03:13:22.396Z,9.29
2023-03-14T03:15:50.298Z,9.28
2023-03-14T03:18:17.992Z,9.24
2023-03-14T03:20:46.682Z,9.18
2023-03-14T03:23:14.438Z,9.10
2023-03-14T03:25:42.372Z,8.99
2023-03-14T03:28:10.064Z,8.88
2023-03-14T03:30:41.343Z,8.78
2023-03-14T03:33:09.419Z,8.68
2023-03-14T03:35:45.524Z,8.61
2023-03-14T03:38:13.886Z,8.54
2023-03-14T03:40:41.631Z,8.48
2023-03-14T03:43:09.477Z,8.43
2023-03-14T03:45:37.132Z,8.39
2023-03-14T03:48:05.353Z,8.34
2023-03-14T03:50:33.135Z,8.29
2023-03-14T03:53:00.931Z,8.22
2023-03-14T03:55:29.215Z,8.16
2023-03-14T03:57:56.856Z,8.10
2023-03-14T04:00:24.878Z,8.03
2023-03-14T04:02:52.560Z,7.96
2023-03-14T04:05:20.358Z,7.86
2023-03-14T04:07:48.278Z,7.78
2023-03-14T04:10:16.160Z,7.69
2023-03-14T04:12:43.840Z,7.60
2023-03-14T04:15:12.074Z,7.53
2023-03-14T04:17:39.761Z,7.53
2023-03-14T04:20:12.047Z,7.55
2023-03-14T04:22:40.045Z,7.58
2023-03-14T04:25:08.446Z,7.59
2023-03-14T04:27:36.194Z,7.59
2023-03-14T04:30:04.370Z,7.57
2023-03-14T04:32:32.096Z,7.54
2023-03-14T04:34:59.765Z,7.49
2023-03-14T04:37:27.708Z,7.46
2023-03-14T04:39:55.356Z,7.43
2023-03-14T04:42:22.984Z,7.40
2023-03-14T04:44:51.147Z,7.37
2023-03-14T04:47:18.805Z,7.34
2023-03-14T04:49:46.490Z,7.31
2023-03-14T04:52:14.290Z,7.28
2023-03-14T04:54:42.044Z,7.25
2023-03-14T04:57:09.777Z,7.23
2023-03-14T04:59:37.577Z,7.22
2023-03-14T05:02:05.348Z,7.20
2023-03-14T05:04:34.717Z,7.17
2023-03-14T05:07:03.016Z,7.14
2023-03-14T05:09:30.682Z,7.16
2023-03-14T05:11:58.341Z,7.20
2023-03-14T05:14:26.410Z,7.26
2023-03-14T05:16:54.039Z,7.33
2023-03-14T05:19:21.796Z,7.38
2023-03-14T05:21:49.443Z,7.41
2023-03-14T05:24:17.071Z,7.44
2023-03-14T05:26:44.995Z,7.46
2023-03-14T05:29:12.831Z,7.49
2023-03-14T05:31:40.544Z,7.51
2023-03-14T05:34:08.427Z,7.53
2023-03-14T05:36:36.210Z,7.54
2023-03-14T05:39:03.900Z,7.54
2023-03-14T05:41:31.585Z,7.56
2023-03-14T05:43:59.406Z,7.57
2023-03-14T05:46:27.048Z,7.59
2023-03-14T05:48:54.694Z,7.61
2023-03-14T05:51:22.405Z,7.63
2023-03-14T05:53:50.147Z,7.65
2023-03-14T05:56:17.753Z,7.67
2023-03-14T05:58:45.514Z,7.68
2023-03-14T06:01:13.329Z,7.69
2023-03-14T06:03:41.165Z,7.70
2023-03-14T06:06:09.470Z,7.72
2023-03-14T06:08:37.206Z,7.78
2023-03-14T06:11:05.160Z,7.87
2023-03-14T06:13:33.271Z,7.97
2023-03-14T06:16:00.944Z,8.05
2023-03-14T06:18:28.769Z,8.11
2023-03-14T06:20:56.976Z,8.18
2023-03-14T06:23:24.661Z,8.23
2023-03-14T06:25:52.558Z,8.29
2023-03-14T06:28:20.469Z,8.33
2023-03-14T06:30:48.226Z,8.38
2023-03-14T06:33:16.020Z,8.43
2023-03-14T06:35:44.032Z,8.48
2023-03-14T06:38:11.874Z,8.54
2023-03-14T06:40:39.608Z,8.62
2023-03-14T06:43:07.447Z,8.71
2023-03-14T06:45:35.154Z,8.83
2023-03-14T06:48:03.237Z,8.95
2023-03-14T06:50:31.064Z,9.07
2023-03-14T06:52:58.857Z,9.19
2023-03-14T06:55:27.139Z,9.31
2023-03-14T06:57:55.035Z,9.42
2023-03-14T07:00:23.146Z,9.53
2023-03-14T07:02:50.924Z,9.64
2023-03-14T07:05:18.841Z,9.75
2023-03-14T07:07:46.566Z,9.85
2023-03-14T07:10:14.244Z,9.94
2023-03-14T07:12:42.089Z,10.03
2023-03-14T07:15:18.261Z,10.09
2023-03-14T07:17:49.257Z,10.15
2023-03-14T07:20:17.590Z,10.22
2023-03-14T07:22:45.329Z,10.27
2023-03-14T07:25:13.178Z,10.33
2023-03-14T07:27:41.370Z,10.38
2023-03-14T07:30:09.800Z,10.44
2023-03-14T07:32:37.612Z,10.50
2023-03-14T07:35:05.906Z,10.57
2023-03-14T07:37:33.541Z,10.62
2023-03-14T07:40:01.316Z,10.68
2023-03-14T07:42:28.999Z,10.74
2023-03-14T07:44:56.633Z,10.80
2023-03-14T07:47:24.767Z,10.87
2023-03-14T07:49:52.634Z,10.92
2023-03-14T07:52:20.307Z,10.96
2023-03-14T07:54:47.968Z,11.00
2023-03-14T07:57:15.646Z,11.04
2023-03-14T07:59:43.547Z,11.08
2023-03-14T08:02:12.932Z,11.13
2023-03-14T08:04:40.897Z,11.18
2023-03-14T08:07:08.576Z,11.24
2023-03-14T08:09:36.311Z,11.32
2023-03-14T08:12:04.330Z,11.39
2023-03-14T08:14:32.172Z,11.44
2023-03-14T08:16:59.863Z,11.47
2023-03-14T08:19:27.696Z,11.49
2023-03-14T08:21:55.399Z,11.48
2023-03-14T08:24:23.260Z,11.48
2023-03-14T08:26:51.142Z,11.46
2023-03-14T08:29:19.086Z,11.46
2023-03-14T08:31:46.844Z,11.51
2023-03-14T08:34:14.668Z,11.59
2023-03-14T08:36:42.919Z,11.69
2023-03-14T08:39:10.743Z,11.77
2023-03-14T08:41:41.588Z,11.83
2023-03-14T08:44:09.953Z,11.91
2023-03-14T08:46:38.181Z,11.93
2023-03-14T08:49:05.931Z,11.95
2023-03-14T08:51:33.821Z,11.92
2023-03-14T08:54:01.541Z,11.88
2023-03-14T08:56:29.295Z,11.80
2023-03-14T08:58:56.982Z,11.72
2023-03-14T09:01:26.446Z,11.65
2023-03-14T09:03:54.348Z,11.59
2023-03-14T09:06:22.209Z,11.56
2023-03-14T09:08:49.895Z,11.52
2023-03-14T09:11:18.821Z,11.48
2023-03-14T09:13:46.599Z,11.46
2023-03-14T09:16:14.497Z,11.44
2023-03-14T09:18:42.177Z,11.43
2023-03-14T09:21:09.864Z,11.44
2023-03-14T09:23:37.531Z,11.46
2023-03-14T09:26:05.413Z,11.48
2023-03-14T09:28:33.143Z,11.49
2023-03-14T09:31:11.208Z,11.51
2023-03-14T09:33:39.167Z,11.51
2023-03-14T09:36:08.216Z,11.51
2023-03-14T09:38:35.969Z,11.52
2023-03-14T09:41:04.655Z,11.54
2023-03-14T09:43:32.964Z,11.57
2023-03-14T09:46:01.140Z,11.61
2023-03-14T09:48:31.002Z,11.67
2023-03-14T09:50:59.337Z,11.75
2023-03-14T09:53:28.859Z,11.81
2023-03-14T09:55:56.519Z,11.88
2023-03-14T09:58:25.116Z,11.92
2023-03-14T10:00:54.841Z,11.93
2023-03-14T10:03:25.661Z,11.92
2023-03-14T10:05:53.408Z,11.94
2023-03-14T10:08:21.205Z,11.96
2023-03-14T10:10:48.907Z,11.98
2023-03-14T10:13:19.723Z,11.99
2023-03-14T10:15:53.815Z,12.00
2023-03-14T10:18:22.952Z,12.00
2023-03-14T10:20:51.130Z,12.02
2023-03-14T10:23:25.850Z,12.03
2023-03-14T10:26:24.443Z,12.03
2023-03-14T10:28:53.393Z,12.01
2023-03-14T10:31:26.049Z,11.99
2023-03-14T10:34:01.900Z,11.96
2023-03-14T10:36:33.230Z,11.91
2023-03-14T10:39:19.435Z,11.88
2023-03-14T10:41:55.410Z,11.83
2023-03-14T10:44:24.588Z,11.78
2023-03-14T10:47:03.963Z,11.72
2023-03-14T10:49:36.346Z,11.65
2023-03-14T10:52:30.888Z,11.58
2023-03-14T10:55:10.259Z,11.51
2023-03-14T10:57:41.806Z,11.46
2023-03-14T11:00:20.798Z,11.41
2023-03-14T11:03:07.162Z,11.36
2023-03-14T11:05:48.216Z,11.30
2023-03-14T11:08:26.276Z,11.29
2023-03-14T11:11:04.224Z,11.30
2023-03-14T11:14:01.276Z,11.31
2023-03-14T11:16:44.094Z,11.29
2023-03-14T11:19:35.860Z,11.27
2023-03-14T11:22:09.523Z,11.24
2023-03-14T11:24:53.143Z,11.20
2023-03-14T11:27:31.779Z,11.18
2023-03-14T11:30:20.800Z,11.18
2023-03-14T11:33:01.440Z,11.19
2023-03-14T11:35:38.797Z,11.21
2023-03-14T11:38:19.247Z,11.23
2023-03-14T11:40:47.988Z,11.26
2023-03-14T11:43:22.269Z,11.27
2023-03-14T11:45:50.092Z,11.23
2023-03-14T11:48:32.558Z,11.18
2023-03-14T11:51:00.995Z,11.12
2023-03-14T11:53:50.728Z,11.07
2023-03-14T11:56:26.596Z,11.00
2023-03-14T11:59:00.084Z,10.93
2023-03-14T12:01:55.394Z,10.90
2023-03-14T12:04:48.820Z,10.86
2023-03-14T12:07:46.460Z,10.82
2023-03-14T12:10:14.983Z,10.73
2023-03-14T12:12:42.807Z,10.67
2023-03-14T12:15:23.355Z,10.61
2023-03-14T12:17:55.337Z,10.54
2023-03-14T12:20:24.099Z,10.49
2023-03-14T12:22:52.820Z,10.48
2023-03-14T12:25:21.568Z,10.44
2023-03-14T12:27:55.448Z,10.38
2023-03-14T12:30:30.463Z,10.32
2023-03-14T12:33:10.700Z,10.27
2023-03-14T12:35:40.252Z,10.22
2023-03-14T12:38:20.217Z,10.24
2023-03-14T12:41:24.378Z,10.26
2023-03-14T12:43:52.081Z,10.29
2023-03-14T12:46:23.874Z,10.31
2023-03-14T12:48:55.967Z,10.34
2023-03-14T12:51:40.533Z,10.40
2023-03-14T12:54:10.893Z,10.48
2023-03-14T12:56:54.418Z,10.59
2023-03-14T12:59:28.081Z,10.68
2023-03-14T13:02:04.706Z,10.72
2023-03-14T13:04:47.360Z,10.72
2023-03-14T13:07:34.831Z,10.71
2023-03-14T13:13:03.843Z,10.71
2023-03-14T13:15:39.059Z,10.72
2023-03-14T13:18:34.052Z,10.71
2023-03-14T13:21:17.364Z,10.68
2023-03-14T13:24:01.427Z,10.65
2023-03-14T13:26:47.075Z,10.63
2023-03-14T13:29:32.425Z,10.65
2023-03-14T13:32:01.708Z,10.69
2023-03-14T13:34:30.309Z,10.70
2023-03-14T13:36:58.121Z,10.68
2023-03-14T13:39:26.829Z,10.66
2023-03-14T13:41:54.940Z,10.64
2023-03-14T13:44:31.129Z,10.66
2023-03-14T13:46:59.949Z,10.67
2023-03-14T13:49:27.853Z,10.67
2023-03-14T13:51:55.687Z,10.65
2023-03-14T13:54:23.704Z,10.61
2023-03-14T13:57:03.704Z,10.55
2023-03-14T13:59:35.466Z,10.49
2023-03-14T14:02:13.578Z,10.47
2023-03-14T14:04:41.383Z,10.46
2023-03-14T14:07:10.992Z,10.44
2023-03-14T14:09:40.440Z,10.41
2023-03-14T14:12:19.004Z,10.37
2023-03-14T14:14:48.278Z,10.33
2023-03-14T14:17:18.627Z,10.33
2023-03-14T14:19:46.404Z,10.37
2023-03-14T14:22:14.146Z,10.41
2023-03-14T14:24:41.874Z,10.42
2023-03-14T14:27:32.340Z,10.42
2023-03-14T14:30:07.725Z,10.40
2023-03-14T14:32:39.354Z,10.39
2023-03-14T14:35:08.534Z,10.40
2023-03-14T14:37:42.841Z,10.41
2023-03-14T14:40:21.512Z,10.40
2023-03-14T14:42:50.213Z,10.38
2023-03-14T14:45:19.819Z,10.38
2023-03-14T14:47:56.817Z,10.41
2023-03-14T14:50:58.155Z,10.44
2023-03-14T14:53:46.229Z,10.43
2023-03-14T14:56:20.221Z,10.41
2023-03-14T14:58:48.163Z,10.42
2023-03-14T15:01:24.076Z,10.43
2023-03-14T15:03:52.646Z,10.46
2023-03-14T15:06:20.504Z,10.53
2023-03-14T15:08:48.905Z,10.58
2023-03-14T15:11:21.631Z,10.57
2023-03-14T15:13:50.014Z,10.56
2023-03-14T15:16:19.773Z,10.53
2023-03-14T15:18:58.205Z,10.54
2023-03-14T15:21:26.925Z,10.59
2023-03-14T15:23:54.934Z,10.59
2023-03-14T15:26:24.432Z,10.58
2023-03-14T15:28:52.122Z,10.55
2023-03-14T15:31:20.319Z,10.50
2023-03-14T15:33:48.241Z,10.45
2023-03-14T15:36:31.772Z,10.41
2023-03-14T15:38:59.921Z,10.39
2023-03-14T15:41:28.098Z,10.40
2023-03-14T15:43:56.087Z,10.38
2023-03-14T15:46:23.989Z,10.36
2023-03-14T15:48:52.240Z,10.33
2023-03-14T15:51:19.927Z,10.33
2023-03-14T15:53:47.786Z,10.32
2023-03-14T15:56:17.425Z,10.31
2023-03-14T15:58:47.681Z,10.28
2023-03-14T16:01:16.982Z,10.25
2023-03-14T16:03:46.104Z,10.23
2023-03-14T16:06:14.250Z,10.22
2023-03-14T16:08:43.467Z,10.21
2023-03-14T16:11:12.416Z,10.20
2023-03-14T16:13:40.623Z,10.20
2023-03-14T16:16:08.950Z,10.23
2023-03-14T16:18:37.714Z,10.26
2023-03-14T16:21:15.103Z,10.27
2023-03-14T16:23:43.122Z,10.26
2023-03-14T16:26:13.049Z,10.23
2023-03-14T16:28:41.044Z,10.25
2023-03-14T16:31:10.750Z,10.26
2023-03-14T16:33:38.826Z,10.25
2023-03-14T16:36:10.933Z,10.22
2023-03-14T16:38:40.424Z,10.18
2023-03-14T16:41:18.212Z,10.17
2023-03-14T16:43:46.221Z,10.18
2023-03-14T16:46:17.333Z,10.17
2023-03-14T16:48:45.757Z,10.15
2023-03-14T16:51:14.250Z,10.11
2023-03-14T16:53:42.408Z,10.07
2023-03-14T16:56:11.031Z,10.01
2023-03-14T16:58:39.175Z,9.97
2023-03-14T17:01:10.565Z,9.96
2023-03-14T17:03:43.385Z,9.94
2023-03-14T17:06:12.591Z,9.89
2023-03-14T17:08:40.424Z,9.85
2023-03-14T17:11:08.332Z,9.80
2023-03-14T17:13:36.317Z,9.75
2023-03-14T17:16:04.400Z,9.72
2023-03-14T17:18:32.284Z,9.71
2023-03-14T17:21:00.389Z,9.71
2023-03-14T17:23:30.130Z,9.67
2023-03-14T17:25:58.210Z,9.62
2023-03-14T17:28:26.662Z,9.57
2023-03-14T17:31:14.028Z,9.54
2023-03-14T17:33:42.124Z,9.56
2023-03-14T17:36:18.014Z,9.56
2023-03-14T17:38:45.984Z,9.53
2023-03-14T17:41:14.843Z,9.49
2023-03-14T17:43:42.784Z,9.43
2023-03-14T17:46:14.402Z,9.42
2023-03-14T17:48:46.173Z,9.44
2023-03-14T17:51:14.644Z,9.46
2023-03-14T17:53:42.468Z,9.47
2023-03-14T17:56:11.962Z,9.45
2023-03-14T17:58:39.754Z,9.41
2023-03-14T18:01:09.175Z,9.39
2023-03-14T18:03:37.260Z,9.36
2023-03-14T18:06:09.094Z,9.38
2023-03-14T18:08:37.711Z,9.39
2023-03-14T18:11:07.462Z,9.39
2023-03-14T18:13:38.470Z,9.37
2023-03-14T18:16:07.417Z,9.34
2023-03-14T18:18:35.638Z,9.31
2023-03-14T18:21:03.378Z,9.30
2023-03-14T18:23:31.042Z,9.31
2023-03-14T18:25:59.329Z,9.30
2023-03-14T18:28:27.392Z,9.26
2023-03-14T18:31:02.031Z,9.23
2023-03-14T18:33:30.258Z,9.18
2023-03-14T18:35:58.281Z,9.16
2023-03-14T18:38:26.336Z,9.17
2023-03-14T18:40:53.979Z,9.17
2023-03-14T18:43:21.627Z,9.15
2023-03-14T18:45:49.700Z,9.12
2023-03-14T18:48:18.145Z,9.09
2023-03-14T18:50:46.291Z,9.05
2023-03-14T18:53:14.311Z,9.02
2023-03-14T18:55:42.237Z,9.02
2023-03-14T18:58:11.253Z,9.03
2023-03-14T19:00:39.886Z,9.03
2023-03-14T19:03:07.973Z,9.01
2023-03-14T19:05:35.614Z,8.98
2023-03-14T19:08:03.357Z,8.96
2023-03-14T19:10:33.382Z,8.96
2023-03-14T19:13:01.352Z,8.97
2023-03-14T19:15:29.416Z,8.97
2023-03-14T19:17:57.205Z,8.93
2023-03-14T19:20:24.910Z,8.90
2023-03-14T19:22:52.896Z,8.87
2023-03-14T19:25:20.983Z,8.85
2023-03-14T19:27:48.866Z,8.85
2023-03-14T19:30:16.885Z,8.86
2023-03-14T19:32:44.823Z,8.85
2023-03-14T19:35:12.609Z,8.82
2023-03-14T19:37:41.034Z,8.78
2023-03-14T19:40:10.094Z,8.76
2023-03-14T19:42:37.814Z,8.76
2023-03-14T19:45:06.408Z,8.76
2023-03-14T19:47:34.049Z,8.74
2023-03-14T19:50:02.495Z,8.71
2023-03-14T19:52:30.807Z,8.68
2023-03-14T19:54:58.662Z,8.70
2023-03-14T19:57:26.316Z,8.71
2023-03-14T19:59:55.000Z,8.71
2023-03-14T20:02:22.770Z,8.68
2023-03-14T20:04:54.499Z,8.67
2023-03-14T20:07:22.210Z,8.65
2023-03-14T20:09:49.846Z,8.67
2023-03-14T20:12:17.490Z,8.67
2023-03-14T20:14:45.493Z,8.65
2023-03-14T20:17:14.135Z,8.63
2023-03-14T20:19:42.025Z,8.63
2023-03-14T20:22:09.909Z,8.64
2023-03-14T20:24:37.837Z,8.64
2023-03-14T20:27:05.446Z,8.63
2023-03-14T20:29:33.411Z,8.61
2023-03-14T20:32:01.373Z,8.60
2023-03-14T20:34:32.493Z,8.63
2023-03-14T20:37:02.856Z,8.63
2023-03-14T20:39:33.518Z,8.63
2023-03-14T20:42:01.766Z,8.61
2023-03-14T20:44:29.419Z,8.60
2023-03-14T20:46:57.884Z,8.61
2023-03-14T20:49:25.955Z,8.64
2023-03-14T20:51:53.567Z,8.65
2023-03-14T20:54:21.321Z,8.63
2023-03-14T20:56:50.787Z,8.61
2023-03-14T20:59:18.479Z,8.61
2023-03-14T21:01:47.993Z,8.63
2023-03-14T21:04:16.088Z,8.63
2023-03-14T21:06:46.087Z,8.62
2023-03-14T21:09:14.782Z,8.60
2023-03-14T21:11:47.406Z,8.61
2023-03-14T21:14:15.577Z,8.65
2023-03-14T21:16:43.278Z,8.66
2023-03-14T21:19:11.629Z,8.66
2023-03-14T21:21:39.320Z,8.65
2023-03-14T21:24:07.974Z,8.64
2023-03-14T21:26:35.868Z,8.65
2023-03-14T21:29:03.521Z,8.69
2023-03-14T21:31:31.322Z,8.69
2023-03-14T21:33:59.464Z,8.67
2023-03-14T21:36:27.207Z,8.64
2023-03-14T21:38:54.870Z,8.62
2023-03-14T21:41:23.443Z,8.61
2023-03-14T21:43:51.162Z,8.62
2023-03-14T21:46:18.890Z,8.62
2023-03-14T21:48:46.966Z,8.59
2023-03-14T21:51:14.929Z,8.57
2023-03-14T21:53:45.755Z,8.57
2023-03-14T21:56:13.567Z,8.58
2023-03-14T21:58:41.534Z,8.59
2023-03-14T22:01:10.682Z,8.58
2023-03-14T22:03:38.433Z,8.56
2023-03-14T22:06:06.401Z,8.55
2023-03-14T22:08:34.037Z,8.57
2023-03-14T22:11:01.734Z,8.59
2023-03-14T22:13:29.692Z,8.57
2023-03-14T22:15:57.426Z,8.48
2023-03-14T22:18:25.668Z,8.25
2023-03-14T22:20:53.292Z,7.97
2023-03-14T22:23:21.099Z,7.67
2023-03-14T22:25:51.725Z,7.38
2023-03-14T22:28:20.323Z,7.17
2023-03-14T22:30:51.576Z,6.99
2023-03-14T22:33:19.617Z,6.82
2023-03-14T22:35:50.935Z,6.73
2023-03-14T22:38:18.956Z,6.66
2023-03-14T22:40:47.323Z,6.58
2023-03-14T22:43:15.009Z,6.51
2023-03-14T22:45:42.909Z,6.48
2023-03-14T22:48:10.921Z,6.41
2023-03-14T22:50:39.891Z,6.31
2023-03-14T22:53:07.822Z,6.18
2023-03-14T22:55:35.489Z,6.06
2023-03-14T22:58:03.475Z,5.98
2023-03-14T23:00:32.005Z,5.89
2023-03-14T23:02:59.882Z,5.78
2023-03-14T23:05:27.713Z,5.71
2023-03-14T23:07:55.425Z,5.66
2023-03-14T23:10:23.064Z,5.61
2023-03-14T23:12:51.014Z,5.53
2023-03-14T23:15:18.952Z,5.49
2023-03-14T23:17:46.597Z,5.46
2023-03-14T23:20:14.305Z,5.41
2023-03-14T23:22:42.092Z,5.34
2023-03-14T23:25:10.029Z,5.30
2023-03-14T23:27:38.149Z,5.22
2023-03-14T23:30:06.494Z,5.14
2023-03-14T23:32:34.180Z,5.07
2023-03-14T23:35:02.179Z,4.98
2023-03-14T23:37:29.818Z,4.86
2023-03-14T23:39:58.085Z,4.70
2023-03-14T23:42:25.786Z,4.55
2023-03-14T23:44:54.531Z,4.43
2023-03-14T23:47:22.387Z,4.30
2023-03-14T23:49:50.066Z,4.16
2023-03-14T23:52:17.772Z,4.05
2023-03-14T23:54:45.629Z,3.97
2023-03-14T23:57:13.289Z,3.87
2023-03-14T23:59:42.949Z,3.78
